createdAt,value
2023-04-22T00:03:57.484Z,99696.91
2023-04-22T00:08:54.064Z,99694.50
2023-04-22T00:13:50.444Z,99705.00
2023-04-22T00:18:46.833Z,99704.56
2023-04-22T00:23:45.254Z,99694.06
2023-04-22T00:28:41.599Z,99685.44
2023-04-22T00:33:38.057Z,99687.53
2023-04-22T00:38:34.430Z,99691.31
2023-04-22T00:43:30.885Z,99684.31
2023-04-22T00:48:28.877Z,99686.13
2023-04-22T00:53:25.408Z,99674.06
2023-04-22T00:58:25.041Z,99676.66
2023-04-22T01:03:22.321Z,99687.44
2023-04-22T01:08:18.819Z,99687.22
2023-04-22T01:13:15.165Z,99672.06
2023-04-22T01:18:12.058Z,99673.41
2023-04-22T01:23:18.945Z,99665.47
2023-04-22T01:28:16.793Z,99673.53
2023-04-22T01:33:13.265Z,99677.16
2023-04-22T01:38:11.395Z,99663.03
2023-04-22T01:43:07.923Z,99662.25
2023-04-22T01:48:04.864Z,99663.59
2023-04-22T01:53:01.391Z,99663.50
2023-04-22T01:57:57.795Z,99661.06
2023-04-22T02:02:54.310Z,99656.53
2023-04-22T02:07:54.848Z,99646.03
2023-04-22T02:12:51.203Z,99661.31
2023-04-22T02:17:47.603Z,99663.81
2023-04-22T02:22:44.045Z,99669.03
2023-04-22T02:27:40.516Z,99668.59
2023-04-22T02:32:38.805Z,99666.16
2023-04-22T02:37:35.274Z,99665.75
2023-04-22T02:42:31.588Z,99661.72
2023-04-22T02:47:27.994Z,99659.31
2023-04-22T02:52:24.361Z,99662.34
2023-04-22T02:57:21.049Z,99657.66
2023-04-22T03:02:17.439Z,99657.81
2023-04-22T03:07:14.374Z,99659.22
2023-04-22T03:12:10.754Z,99648.44
2023-04-22T03:17:07.094Z,99648.84
2023-04-22T03:22:03.468Z,99639.28
2023-04-22T03:26:59.809Z,99636.34
2023-04-22T03:31:56.237Z,99637.50
2023-04-22T03:36:52.765Z,99646.94
2023-04-22T03:41:49.085Z,99647.25
2023-04-22T03:46:45.416Z,99646.41
2023-04-22T03:51:42.285Z,99649.25
2023-04-22T03:56:38.787Z,99638.34
2023-04-22T04:01:36.243Z,99640.84
2023-04-22T04:06:33.309Z,99641.72
2023-04-22T04:11:30.680Z,99639.19
2023-04-22T04:16:27.104Z,99639.06
2023-04-22T04:21:23.559Z,99638.47
2023-04-22T04:26:20.398Z,99634.28
2023-04-22T04:31:17.643Z,99628.00
2023-04-22T04:36:14.082Z,99625.44
2023-04-22T04:41:10.661Z,99619.03
2023-04-22T04:46:08.299Z,99619.72
2023-04-22T04:51:06.172Z,99605.31
2023-04-22T04:56:02.529Z,99614.53
2023-04-22T05:00:58.889Z,99615.09
2023-04-22T05:05:55.886Z,99624.19
2023-04-22T05:10:52.205Z,99632.16
2023-04-22T05:15:48.888Z,99622.91
2023-04-22T05:20:45.305Z,99622.03
2023-04-22T05:25:43.139Z,99627.91
2023-04-22T05:30:39.542Z,99632.19
2023-04-22T05:35:35.891Z,99630.31
2023-04-22T05:40:32.308Z,99628.53
2023-04-22T05:45:28.685Z,99634.69
2023-04-22T05:50:25.161Z,99621.38
2023-04-22T05:55:21.458Z,99620.47
2023-04-22T06:00:18.126Z,99624.59
2023-04-22T06:05:14.532Z,99633.16
2023-04-22T06:10:10.970Z,99627.13
2023-04-22T06:15:07.714Z,99622.44
2023-04-22T06:20:04.341Z,99610.41
2023-04-22T06:25:00.629Z,99602.88
2023-04-22T06:29:56.918Z,99599.09
2023-04-22T06:34:53.213Z,99602.38
2023-04-22T06:39:49.509Z,99602.28
2023-04-22T06:44:45.821Z,99607.53
2023-04-22T06:49:43.716Z,99604.88
2023-04-22T06:54:40.150Z,99616.28
2023-04-22T06:59:36.593Z,99606.06
2023-04-22T07:04:33.236Z,99609.38
2023-04-22T07:09:29.543Z,99598.72
2023-04-22T07:14:27.283Z,99606.72
2023-04-22T07:19:23.657Z,99616.34
2023-04-22T07:24:19.959Z,99597.81
2023-04-22T07:29:16.301Z,99599.44
2023-04-22T07:34:14.164Z,99596.94
2023-04-22T07:39:10.489Z,99595.09
2023-04-22T07:44:06.851Z,99593.59
2023-04-22T07:49:03.140Z,99595.81
2023-04-22T07:53:59.492Z,99591.56
2023-04-22T07:58:55.772Z,99581.25
2023-04-22T08:03:52.296Z,99580.41
2023-04-22T08:08:48.942Z,99574.72
2023-04-22T08:13:45.646Z,99575.00
2023-04-22T08:18:41.942Z,99577.16
2023-04-22T08:23:38.347Z,99573.91
2023-04-22T08:28:35.414Z,99571.31
2023-04-22T08:33:31.722Z,99569.59
2023-04-22T08:38:28.104Z,99569.03
2023-04-22T08:43:27.552Z,99568.44
2023-04-22T08:48:23.856Z,99567.66
2023-04-22T08:53:23.042Z,99567.63
2023-04-22T08:58:22.145Z,99562.63
2023-04-22T09:03:19.176Z,99549.44
2023-04-22T09:08:15.848Z,99555.44
2023-04-22T09:13:13.801Z,99541.81
2023-04-22T09:18:10.273Z,99528.06
2023-04-22T09:23:06.772Z,99515.53
2023-04-22T09:28:03.369Z,99517.84
2023-04-22T09:33:01.643Z,99514.59
2023-04-22T09:38:00.077Z,99526.00
2023-04-22T09:42:58.565Z,99511.84
2023-04-22T09:47:57.059Z,99507.63
2023-04-22T09:52:56.257Z,99511.53
2023-04-22T09:57:54.434Z,99511.69
2023-04-22T10:02:50.891Z,99505.63
2023-04-22T10:07:47.288Z,99501.34
2023-04-22T10:12:44.397Z,99484.03
2023-04-22T10:17:42.725Z,99480.44
2023-04-22T10:22:41.718Z,99465.13
2023-04-22T10:27:38.948Z,99467.25
2023-04-22T10:32:35.395Z,99467.56
2023-04-22T10:37:33.656Z,99458.50
2023-04-22T10:42:30.214Z,99449.41
2023-04-22T10:47:34.765Z,99437.13
2023-04-22T10:52:31.072Z,99433.59
2023-04-22T10:57:37.442Z,99430.25
2023-04-22T11:02:37.002Z,99418.19
2023-04-22T11:07:35.585Z,99425.28
2023-04-22T11:12:43.913Z,99412.50
2023-04-22T11:17:43.547Z,99406.50
2023-04-22T11:22:43.509Z,99407.03
2023-04-22T11:27:43.317Z,99415.91
2023-04-22T11:32:44.876Z,99402.78
2023-04-22T11:37:47.495Z,99392.81
2023-04-22T11:42:44.162Z,99399.06
2023-04-22T11:47:41.428Z,99399.47
2023-04-22T11:52:42.115Z,99405.25
2023-04-22T11:57:38.854Z,99402.56
2023-04-22T12:02:35.251Z,99392.28
2023-04-22T12:07:33.065Z,99386.47
2023-04-22T12:12:29.354Z,99371.91
2023-04-22T12:17:25.996Z,99381.78
2023-04-22T12:22:30.127Z,99383.75
2023-04-22T12:27:27.748Z,99373.75
2023-04-22T12:32:26.071Z,99367.38
2023-04-22T12:37:22.390Z,99354.25
2023-04-22T12:42:18.890Z,99355.00
2023-04-22T12:47:17.841Z,99351.41
2023-04-22T12:52:14.229Z,99353.38
2023-04-22T12:57:10.570Z,99354.66
2023-04-22T13:02:06.993Z,99352.69
2023-04-22T13:07:03.516Z,99351.19
2023-04-22T13:11:59.835Z,99339.13
2023-04-22T13:16:56.256Z,99337.34
2023-04-22T13:21:53.047Z,99332.19
2023-04-22T13:26:49.462Z,99324.03
2023-04-22T13:31:46.167Z,99320.16
2023-04-22T13:36:42.611Z,99329.47
2023-04-22T13:41:38.939Z,99334.84
2023-04-22T13:46:35.230Z,99334.66
2023-04-22T13:51:32.228Z,99318.00
2023-04-22T13:56:29.360Z,99313.22
2023-04-22T14:01:26.673Z,99295.06
2023-04-22T14:06:23.228Z,99298.31
2023-04-22T14:11:19.643Z,99308.69
2023-04-22T14:16:16.121Z,99296.72
2023-04-22T14:21:12.707Z,99290.13
2023-04-22T14:26:11.621Z,99286.94
2023-04-22T14:31:08.688Z,99291.63
2023-04-22T14:36:05.402Z,99302.75
2023-04-22T14:41:01.898Z,99298.28
2023-04-22T14:45:58.304Z,99294.22
2023-04-22T14:50:54.677Z,99287.44
2023-04-22T14:55:51.081Z,99287.56
2023-04-22T15:00:48.966Z,99284.47
2023-04-22T15:05:49.145Z,99282.88
2023-04-22T15:10:45.651Z,99286.97
2023-04-22T15:15:42.161Z,99284.50
2023-04-22T15:20:38.618Z,99295.13
2023-04-22T15:25:35.775Z,99287.09
2023-04-22T15:30:32.380Z,99284.19
2023-04-22T15:35:28.791Z,99288.53
2023-04-22T15:40:25.296Z,99284.09
2023-04-22T15:45:21.727Z,99293.88
2023-04-22T15:50:19.188Z,99281.44
2023-04-22T15:55:15.493Z,99297.38
2023-04-22T16:00:14.149Z,99296.75
2023-04-22T16:05:14.573Z,99308.06
2023-04-22T16:10:11.371Z,99315.31
2023-04-22T16:15:09.574Z,99326.16
2023-04-22T16:20:06.668Z,99346.53
2023-04-22T16:25:03.194Z,99355.66
2023-04-22T16:29:59.579Z,99358.28
2023-04-22T16:34:55.983Z,99363.22
2023-04-22T16:39:52.373Z,99360.94
2023-04-22T16:44:48.930Z,99353.09
2023-04-22T16:49:45.620Z,99361.69
2023-04-22T16:54:44.831Z,99364.50
2023-04-22T16:59:41.554Z,99375.81
2023-04-22T17:04:38.012Z,99384.19
2023-04-22T17:09:34.403Z,99387.88
2023-04-22T17:14:31.099Z,99388.75
2023-04-22T17:19:27.827Z,99387.81
2023-04-22T17:24:24.835Z,99378.31
2023-04-22T17:29:21.801Z,99387.81
2023-04-22T17:34:18.343Z,99392.44
2023-04-22T17:39:14.907Z,99386.47
2023-04-22T17:44:11.307Z,99384.34
2023-04-22T17:49:07.664Z,99378.41
2023-04-22T17:54:05.213Z,99383.78
2023-04-22T17:59:01.685Z,99377.50
2023-04-22T18:03:58.923Z,99379.88
2023-04-22T18:08:55.450Z,99375.44
2023-04-22T18:13:51.818Z,99371.81
2023-04-22T18:18:48.244Z,99380.22
2023-04-22T18:23:44.559Z,99380.78
2023-04-22T18:28:41.097Z,99382.97
2023-04-22T18:33:37.756Z,99391.56
2023-04-22T18:38:34.124Z,99399.63
2023-04-22T18:43:30.620Z,99403.03
2023-04-22T18:48:26.953Z,99418.31
2023-04-22T18:53:24.751Z,99415.66
2023-04-22T18:58:23.083Z,99415.56
2023-04-22T19:03:19.731Z,99421.63
2023-04-22T19:08:16.326Z,99427.91
2023-04-22T19:13:18.909Z,99428.28
2023-04-22T19:18:24.820Z,99437.53
2023-04-22T19:23:21.765Z,99439.00
2023-04-22T19:28:18.137Z,99437.53
2023-04-22T19:33:14.941Z,99454.53
2023-04-22T19:38:12.117Z,99461.97
2023-04-22T19:43:08.483Z,99460.03
2023-04-22T19:48:05.694Z,99468.31
2023-04-22T19:53:05.207Z,99470.91
2023-04-22T19:58:02.646Z,99473.28
2023-04-22T20:02:59.591Z,99478.31
2023-04-22T20:07:58.465Z,99475.00
2023-04-22T20:12:55.145Z,99482.00
2023-04-22T20:17:51.924Z,99476.66
2023-04-22T20:22:50.193Z,99483.66
2023-04-22T20:27:46.918Z,99483.28
2023-04-22T20:32:43.519Z,99479.59
2023-04-22T20:37:40.104Z,99478.56
2023-04-22T20:42:37.013Z,99486.41
2023-04-22T20:47:33.498Z,99480.41
2023-04-22T20:52:29.877Z,99490.72
2023-04-22T20:57:26.198Z,99489.38
2023-04-22T21:02:23.298Z,99485.03
2023-04-22T21:07:20.916Z,99490.50
2023-04-22T21:12:19.257Z,99491.84
2023-04-22T21:17:21.327Z,99492.59
2023-04-22T21:22:21.108Z,99501.31
2023-04-22T21:27:21.919Z,99502.31
2023-04-22T21:32:20.442Z,99501.31
2023-04-22T21:37:16.926Z,99499.66
2023-04-22T21:42:13.264Z,99486.28
2023-04-22T21:47:09.614Z,99476.56
2023-04-22T21:52:06.020Z,99481.59
2023-04-22T21:57:02.511Z,99476.28
2023-04-22T22:01:58.890Z,99466.78
2023-04-22T22:06:55.616Z,99461.22
2023-04-22T22:11:51.981Z,99458.88
2023-04-22T22:16:49.847Z,99454.50
2023-04-22T22:21:46.391Z,99458.69
2023-04-22T22:26:43.290Z,99454.81
2023-04-22T22:31:39.773Z,99466.22
2023-04-22T22:36:36.941Z,99474.19
2023-04-22T22:41:33.273Z,99493.75
2023-04-22T22:46:30.566Z,99521.81
2023-04-22T22:51:29.846Z,99541.78
2023-04-22T22:56:26.447Z,99538.38
2023-04-22T23:01:23.434Z,99548.72
2023-04-22T23:06:19.873Z,99552.34
2023-04-22T23:11:16.304Z,99566.97
2023-04-22T23:16:12.705Z,99577.88
2023-04-22T23:21:10.097Z,99585.50
2023-04-22T23:26:06.888Z,99598.56
2023-04-22T23:31:06.566Z,99604.38
2023-04-22T23:36:06.153Z,99619.00
2023-04-22T23:41:02.533Z,99629.13
2023-04-22T23:45:59.140Z,99631.91
2023-04-22T23:50:55.544Z,99640.22
2023-04-22T23:55:52.303Z,99632.78
